Time;durP1;ratioP1;P1;durP2;ratioP2;P2;SDS_P1;SDS_P2;PMS_P1;PMS_P2;Temp;Humidity;BMP_temperature;BMP_pressure;BME280_temperature;BME280_humidity;BME280_pressure;Samples;Min_cycle;Max_cycle;Signal;HPM_P1;HPM_P2
2022/05/19 00:00:35;;;;;;;29.98;22.83;;;16.30;99.90;;;;;;5041445;28;20056;-71
2022/05/19 00:03:48;;;;;;;25.52;21.45;;;16.40;99.90;;;;;;5041289;28;20079;-71
2022/05/19 00:06:13;;;;;;;25.42;21.85;;;16.30;99.90;;;;;;5023367;28;20037;-70
2022/05/19 00:08:39;;;;;;;25.73;22.13;;;16.30;99.90;;;;;;5018946;28;20539;-71
2022/05/19 00:11:12;;;;;;;27.88;22.55;;;16.40;99.90;;;;;;5041288;28;20045;-71
2022/05/19 00:13:38;;;;;;;26.35;21.15;;;16.40;99.90;;;;;;5039039;28;20053;-70
2022/05/19 00:16:08;;;;;;;24.17;21.45;;;16.20;99.90;;;;;;5039225;28;20044;-71
2022/05/19 00:18:34;;;;;;;26.70;23.10;;;16.40;99.90;;;;;;5025545;28;20067;-70
2022/05/19 00:21:01;;;;;;;28.95;22.25;;;16.40;99.90;;;;;;5037158;28;20612;-70
2022/05/19 00:23:27;;;;;;;22.92;19.20;;;16.20;99.90;;;;;;5049095;28;20048;-70
2022/05/19 00:25:53;;;;;;;22.45;19.98;;;16.20;99.90;;;;;;5043059;28;20045;-70
2022/05/19 00:28:18;;;;;;;28.50;21.98;;;16.20;99.90;;;;;;5031247;28;20459;-70
2022/05/19 00:30:44;;;;;;;23.73;21.25;;;16.20;99.90;;;;;;5041570;28;20044;-71
2022/05/19 00:33:11;;;;;;;23.02;20.73;;;16.20;99.90;;;;;;5039155;28;20454;-71
2022/05/19 00:35:40;;;;;;;25.25;21.20;;;16.10;99.90;;;;;;5040259;28;20060;-70
2022/05/19 00:38:06;;;;;;;25.50;21.92;;;16.00;99.90;;;;;;5038905;28;20037;-73
2022/05/19 00:40:32;;;;;;;27.20;23.15;;;16.00;99.90;;;;;;5041874;28;20450;-71
2022/05/19 00:42:58;;;;;;;23.90;21.33;;;16.10;99.90;;;;;;5039166;28;20044;-70
2022/05/19 00:45:27;;;;;;;26.02;20.40;;;16.00;99.90;;;;;;5031329;28;20029;-70
2022/05/19 00:48:08;;;;;;;25.05;20.55;;;15.90;99.90;;;;;;5035266;28;20048;-70
2022/05/19 00:50:49;;;;;;;26.63;20.88;;;15.80;99.90;;;;;;5024294;28;20029;-72
2022/05/19 00:53:52;;;;;;;24.85;21.10;;;15.90;99.90;;;;;;5041223;28;20033;-72
2022/05/19 00:56:24;;;;;;;23.27;20.33;;;15.90;99.90;;;;;;5016922;28;20124;-72
2022/05/19 00:59:07;;;;;;;30.60;23.88;;;15.70;99.90;;;;;;5046389;28;20496;-72
2022/05/19 01:01:35;;;;;;;26.55;23.73;;;15.90;99.90;;;;;;5043655;28;20374;-71
2022/05/19 01:04:07;;;;;;;27.13;24.27;;;15.80;99.90;;;;;;5036963;28;20037;-71
2022/05/19 01:06:34;;;;;;;31.15;26.17;;;15.80;99.90;;;;;;5039478;28;20036;-72
2022/05/19 01:09:06;;;;;;;34.83;28.27;;;15.80;99.90;;;;;;5047688;28;20044;-72
2022/05/19 01:11:31;;;;;;;38.35;28.95;;;16.00;99.90;;;;;;5023227;28;20041;-71
2022/05/19 01:13:58;;;;;;;36.47;29.48;;;16.20;99.90;;;;;;5038371;28;20040;-70
2022/05/19 01:16:24;;;;;;;35.90;31.58;;;16.20;99.90;;;;;;5026937;28;20056;-71
2022/05/19 01:18:50;;;;;;;42.60;32.15;;;16.10;99.90;;;;;;5045875;28;20033;-70
2022/05/19 01:21:20;;;;;;;37.17;30.80;;;16.20;99.90;;;;;;5044498;28;20496;-71
2022/05/19 01:23:59;;;;;;;37.50;30.38;;;16.20;99.90;;;;;;5041175;28;20056;-71
2022/05/19 01:26:28;;;;;;;38.55;28.90;;;16.20;99.90;;;;;;5043266;28;20052;-71
2022/05/19 01:28:58;;;;;;;38.83;31.45;;;16.40;99.90;;;;;;5029870;28;20041;-70
2022/05/19 01:31:43;;;;;;;36.47;30.25;;;16.30;99.90;;;;;;5041584;28;20049;-71
2022/05/19 01:34:09;;;;;;;35.88;31.73;;;16.40;99.90;;;;;;5045007;28;20963;-69
2022/05/19 01:36:35;;;;;;;40.70;31.52;;;16.40;99.90;;;;;;5043421;28;20033;-70
2022/05/19 01:39:07;;;;;;;40.95;31.83;;;16.50;99.90;;;;;;5039547;28;20065;-69
2022/05/19 01:41:49;;;;;;;37.35;31.80;;;16.40;99.90;;;;;;5038746;28;20049;-70
2022/05/19 01:44:52;;;;;;;39.28;33.55;;;16.40;99.90;;;;;;5041722;28;20098;-71
2022/05/19 01:47:25;;;;;;;35.00;30.05;;;16.40;99.90;;;;;;5043686;28;20041;-71
2022/05/19 01:50:04;;;;;;;39.65;31.95;;;16.60;99.90;;;;;;5029882;28;20048;-72
2022/05/19 01:52:33;;;;;;;40.55;33.63;;;16.50;99.90;;;;;;5024847;28;20614;-70
2022/05/19 01:55:22;;;;;;;38.97;32.45;;;16.60;99.90;;;;;;5047965;28;20076;-72
2022/05/19 01:58:25;;;;;;;41.80;31.70;;;16.80;99.90;;;;;;5034163;28;20045;-71
2022/05/19 02:00:54;;;;;;;37.38;29.90;;;17.00;99.90;;;;;;5044855;28;20405;-70
2022/05/19 02:03:49;;;;;;;40.45;33.63;;;17.10;99.90;;;;;;5045456;28;20120;-71
2022/05/19 02:06:32;;;;;;;40.08;34.60;;;17.10;99.90;;;;;;5029706;28;20074;-71
2022/05/19 02:09:15;;;;;;;40.80;34.10;;;17.30;99.90;;;;;;5044927;28;20385;-72
2022/05/19 02:11:55;;;;;;;51.17;36.65;;;17.30;99.90;;;;;;5039615;28;20041;-71
2022/05/19 02:14:47;;;;;;;43.85;34.25;;;17.40;99.90;;;;;;5012258;28;20466;-70
2022/05/19 02:17:17;;;;;;;42.08;34.67;;;17.60;99.90;;;;;;5028608;28;20052;-71
2022/05/19 02:19:46;;;;;;;44.63;36.88;;;17.80;99.90;;;;;;5045563;28;20044;-70
2022/05/19 02:22:19;;;;;;;42.28;34.88;;;17.70;99.90;;;;;;5040571;28;20025;-72
2022/05/19 02:24:52;;;;;;;42.75;36.00;;;17.80;99.90;;;;;;5046409;28;20041;-70
2022/05/19 02:27:32;;;;;;;46.63;37.55;;;18.10;99.90;;;;;;5046964;28;20041;-71
2022/05/19 02:30:01;;;;;;;44.00;35.95;;;18.10;99.90;;;;;;5045387;28;20382;-70
2022/05/19 02:32:27;;;;;;;43.53;36.63;;;18.20;99.90;;;;;;5044713;28;20053;-70
2022/05/19 02:34:53;;;;;;;43.88;35.88;;;18.10;99.90;;;;;;5024892;28;20146;-70
2022/05/19 02:37:19;;;;;;;44.90;34.45;;;18.10;99.90;;;;;;5045978;28;20511;-71
2022/05/19 02:39:44;;;;;;;43.17;35.28;;;18.10;99.90;;;;;;5029488;28;20099;-69
2022/05/19 02:42:10;;;;;;;40.47;34.53;;;18.30;99.90;;;;;;5035038;28;20393;-71
2022/05/19 02:44:36;;;;;;;47.55;35.38;;;18.30;99.90;;;;;;5044378;28;20037;-70
2022/05/19 02:47:01;;;;;;;44.42;34.67;;;18.20;99.90;;;;;;5028857;28;20055;-71
2022/05/19 02:49:27;;;;;;;43.50;35.08;;;18.30;99.90;;;;;;5030518;28;20116;-70
2022/05/19 02:51:53;;;;;;;41.53;33.72;;;18.20;99.90;;;;;;5030848;28;20051;-72
2022/05/19 02:54:21;;;;;;;39.20;32.70;;;18.20;99.90;;;;;;5040296;28;20052;-71
2022/05/19 02:56:49;;;;;;;39.75;33.40;;;18.20;99.90;;;;;;5013051;28;20390;-70
2022/05/19 02:59:15;;;;;;;41.40;33.55;;;18.30;99.90;;;;;;5047162;28;20033;-71
2022/05/19 03:01:41;;;;;;;38.15;32.97;;;18.50;99.90;;;;;;5039474;28;20052;-70
2022/05/19 03:04:07;;;;;;;43.10;33.67;;;18.60;99.90;;;;;;5049030;28;20086;-71
2022/05/19 03:06:33;;;;;;;47.20;37.28;;;18.60;99.90;;;;;;5037390;28;20056;-71
2022/05/19 03:08:59;;;;;;;46.75;36.55;;;18.50;99.90;;;;;;5033650;28;20047;-72
2022/05/19 03:11:25;;;;;;;48.25;38.08;;;18.40;99.90;;;;;;5032129;28;20032;-70
2022/05/19 03:13:50;;;;;;;44.80;36.58;;;18.40;99.90;;;;;;5027204;28;20540;-70
2022/05/19 03:16:16;;;;;;;48.33;37.97;;;18.40;99.90;;;;;;5022371;28;20063;-72
2022/05/19 03:18:42;;;;;;;47.72;36.45;;;18.50;99.90;;;;;;5049030;28;20147;-70
2022/05/19 03:21:08;;;;;;;47.22;36.17;;;18.70;99.90;;;;;;5033367;28;20381;-71
2022/05/19 03:23:33;;;;;;;45.30;36.70;;;18.90;99.90;;;;;;5043091;28;20036;-71
2022/05/19 03:25:59;;;;;;;46.88;39.70;;;18.80;99.90;;;;;;5046998;28;20396;-70
2022/05/19 03:28:25;;;;;;;47.10;38.00;;;18.70;99.90;;;;;;5034964;28;20056;-70
2022/05/19 03:30:51;;;;;;;50.17;41.30;;;19.10;99.90;;;;;;5034387;28;20047;-71
2022/05/19 03:33:17;;;;;;;45.50;37.50;;;18.90;99.90;;;;;;5048961;28;20064;-71
2022/05/19 03:35:43;;;;;;;51.30;40.83;;;18.90;99.90;;;;;;5047042;28;20099;-71
2022/05/19 03:38:10;;;;;;;49.80;38.53;;;18.90;99.90;;;;;;5050019;28;20116;-71
2022/05/19 03:40:35;;;;;;;54.00;40.78;;;19.00;99.90;;;;;;5047266;28;20039;-72
2022/05/19 03:43:01;;;;;;;48.70;40.35;;;19.20;99.90;;;;;;5031700;28;20036;-71
2022/05/19 03:45:27;;;;;;;51.97;38.95;;;19.00;99.90;;;;;;5037525;28;20036;-71
2022/05/19 03:47:53;;;;;;;54.25;42.22;;;18.90;99.90;;;;;;5028051;28;20029;-71
2022/05/19 03:50:18;;;;;;;49.45;38.95;;;19.00;99.90;;;;;;5046943;28;20036;-70
2022/05/19 03:52:44;;;;;;;49.25;36.50;;;19.20;99.90;;;;;;5049599;28;20389;-71
2022/05/19 03:55:13;;;;;;;49.33;39.78;;;19.00;99.90;;;;;;5045986;28;20878;-71
2022/05/19 03:57:39;;;;;;;55.33;42.08;;;19.20;99.90;;;;;;5037301;28;20184;-70
2022/05/19 04:00:07;;;;;;;57.55;44.05;;;18.80;99.90;;;;;;5014436;28;20033;-70
2022/05/19 04:02:32;;;;;;;56.60;43.22;;;18.90;99.90;;;;;;5049386;28;20037;-70
2022/05/19 04:04:58;;;;;;;47.75;37.20;;;18.70;99.90;;;;;;5029073;28;20045;-69
2022/05/19 04:07:24;;;;;;;57.78;43.28;;;18.80;99.90;;;;;;5043424;28;20063;-70
2022/05/19 04:09:49;;;;;;;52.88;43.33;;;18.80;99.90;;;;;;5039735;28;20413;-71
2022/05/19 04:12:20;;;;;;;52.45;41.25;;;18.60;99.90;;;;;;5033945;28;20408;-71
2022/05/19 04:14:46;;;;;;;58.15;43.70;;;18.80;99.90;;;;;;5046470;28;20048;-71
2022/05/19 04:17:12;;;;;;;55.72;44.50;;;18.90;99.90;;;;;;5031962;28;20045;-71
2022/05/19 04:19:37;;;;;;;51.45;41.90;;;18.40;99.90;;;;;;5047424;28;20034;-71
2022/05/19 04:22:03;;;;;;;62.55;49.13;;;18.40;99.90;;;;;;5043582;28;20120;-72
2022/05/19 04:24:29;;;;;;;56.35;42.03;;;18.50;99.90;;;;;;5049177;28;20037;-71
2022/05/19 04:26:55;;;;;;;65.38;51.03;;;18.40;99.90;;;;;;5047908;28;20040;-71
2022/05/19 04:29:20;;;;;;;67.65;53.08;;;18.40;99.90;;;;;;5043210;28;20128;-72
2022/05/19 04:31:46;;;;;;;50.97;39.65;;;18.50;99.90;;;;;;5045502;28;20103;-70
2022/05/19 04:34:11;;;;;;;52.08;42.38;;;18.60;99.90;;;;;;5016132;28;20049;-71
2022/05/19 04:36:37;;;;;;;52.20;40.30;;;18.80;99.90;;;;;;5048972;28;20044;-71
2022/05/19 04:39:03;;;;;;;66.70;49.03;;;18.60;99.90;;;;;;5049219;28;20033;-71
2022/05/19 04:41:29;;;;;;;49.90;38.40;;;18.50;99.90;;;;;;5050109;28;20041;-71
2022/05/19 04:43:55;;;;;;;50.90;40.83;;;18.40;99.90;;;;;;5031280;28;20382;-72
2022/05/19 04:46:20;;;;;;;48.22;39.50;;;18.60;99.90;;;;;;5049162;28;20512;-72
2022/05/19 04:48:46;;;;;;;47.53;39.60;;;18.80;99.90;;;;;;5050343;28;20084;-71
2022/05/19 04:51:12;;;;;;;56.45;45.03;;;18.70;99.90;;;;;;5034647;28;20051;-71
2022/05/19 04:53:38;;;;;;;53.42;42.42;;;18.80;99.90;;;;;;5046197;28;20063;-73
2022/05/19 04:56:04;;;;;;;47.22;39.30;;;18.80;99.90;;;;;;5029224;28;20087;-71
2022/05/19 04:58:30;;;;;;;56.17;41.53;;;18.60;99.90;;;;;;5028448;28;20029;-71
2022/05/19 05:00:55;;;;;;;52.88;43.03;;;18.70;99.90;;;;;;5051290;28;20048;-71
2022/05/19 05:03:21;;;;;;;60.53;48.70;;;18.90;99.90;;;;;;5033804;28;20051;-72
2022/05/19 05:05:47;;;;;;;53.70;40.70;;;18.70;99.90;;;;;;5049618;28;20381;-72
2022/05/19 05:08:13;;;;;;;54.67;43.97;;;18.60;99.90;;;;;;5049574;28;20037;-72
2022/05/19 05:10:40;;;;;;;52.30;42.28;;;18.80;99.90;;;;;;5031314;28;20052;-71
2022/05/19 05:13:11;;;;;;;51.25;39.78;;;18.90;99.90;;;;;;5042381;28;20156;-71
2022/05/19 05:15:38;;;;;;;55.72;45.65;;;18.80;99.90;;;;;;5030918;28;20413;-73
2022/05/19 05:18:05;;;;;;;48.95;39.17;;;19.00;99.90;;;;;;5030145;28;20033;-72
2022/05/19 05:20:31;;;;;;;50.67;40.83;;;18.80;99.90;;;;;;5046841;28;20478;-71
2022/05/19 05:22:56;;;;;;;48.08;40.05;;;18.80;99.90;;;;;;5048066;28;20044;-72
2022/05/19 05:25:22;;;;;;;56.95;45.85;;;19.10;99.90;;;;;;5024453;28;20382;-72
2022/05/19 05:27:48;;;;;;;52.88;40.47;;;18.80;99.90;;;;;;5031116;28;20041;-71
2022/05/19 05:30:15;;;;;;;46.65;37.97;;;19.00;99.90;;;;;;5049590;28;20041;-72
2022/05/19 05:32:41;;;;;;;48.80;38.17;;;19.10;99.90;;;;;;5048983;28;20047;-71
2022/05/19 05:35:08;;;;;;;38.38;29.88;;;19.30;99.90;;;;;;5047658;28;20365;-72
2022/05/19 05:37:35;;;;;;;43.92;36.42;;;19.10;99.90;;;;;;5033707;28;20595;-72
2022/05/19 05:40:01;;;;;;;46.17;38.60;;;19.20;99.90;;;;;;5019397;28;20117;-71
2022/05/19 05:42:27;;;;;;;43.60;36.15;;;19.10;99.90;;;;;;5034045;28;20530;-71
2022/05/19 05:44:53;;;;;;;42.78;33.75;;;19.00;99.90;;;;;;5009441;28;20041;-73
2022/05/19 05:47:18;;;;;;;45.30;36.78;;;19.00;99.90;;;;;;5013918;28;20516;-72
2022/05/19 05:49:44;;;;;;;43.45;34.80;;;19.10;99.90;;;;;;5003844;28;20037;-72
2022/05/19 05:52:10;;;;;;;39.80;33.65;;;19.00;99.90;;;;;;5030384;28;20041;-71
2022/05/19 05:54:35;;;;;;;38.45;32.30;;;19.20;99.90;;;;;;5042340;28;20045;-71
2022/05/19 05:57:01;;;;;;;38.83;32.95;;;19.50;99.90;;;;;;5024117;28;20052;-72
2022/05/19 05:59:27;;;;;;;40.70;34.20;;;19.50;99.90;;;;;;5030257;28;20041;-72
2022/05/19 06:01:53;;;;;;;38.17;32.13;;;19.50;99.90;;;;;;5042202;28;20061;-71
2022/05/19 06:04:18;;;;;;;37.40;30.50;;;19.80;99.90;;;;;;5035879;28;20041;-73
2022/05/19 06:06:46;;;;;;;36.85;28.77;;;19.70;99.90;;;;;;5032715;28;20044;-71
2022/05/19 06:09:12;;;;;;;34.70;26.45;;;19.90;99.90;;;;;;5048465;28;20081;-71
2022/05/19 06:11:38;;;;;;;33.17;26.02;;;19.80;99.90;;;;;;5049574;28;20126;-70
2022/05/19 06:14:04;;;;;;;28.58;25.45;;;19.80;99.90;;;;;;5047742;28;20081;-70
2022/05/19 06:16:30;;;;;;;27.30;23.67;;;19.80;99.90;;;;;;5045781;28;20037;-72
2022/05/19 06:18:56;;;;;;;27.67;23.00;;;20.00;99.90;;;;;;5048730;28;20512;-70
2022/05/19 06:21:21;;;;;;;26.88;22.27;;;20.20;99.90;;;;;;5050108;28;20430;-71
2022/05/19 06:23:47;;;;;;;28.27;21.75;;;20.30;99.90;;;;;;5044616;28;20037;-70
2022/05/19 06:26:13;;;;;;;24.65;21.30;;;20.50;99.90;;;;;;5046590;28;20052;-72
2022/05/19 06:28:39;;;;;;;25.67;21.98;;;20.50;99.90;;;;;;5027494;28;20121;-70
2022/05/19 06:31:05;;;;;;;24.42;21.75;;;20.60;99.90;;;;;;5047280;28;20492;-72
2022/05/19 06:33:33;;;;;;;27.42;20.38;;;20.70;99.90;;;;;;5045647;28;20072;-72
2022/05/19 06:35:59;;;;;;;23.83;20.65;;;20.60;99.90;;;;;;5047915;28;20376;-71
2022/05/19 06:38:25;;;;;;;21.83;19.13;;;20.60;99.90;;;;;;5031410;28;20116;-71
2022/05/19 06:40:51;;;;;;;20.05;17.85;;;20.80;99.90;;;;;;5044492;28;20405;-69
2022/05/19 06:43:19;;;;;;;19.73;17.60;;;20.80;99.90;;;;;;5043969;28;20041;-69
2022/05/19 06:45:45;;;;;;;20.50;16.73;;;20.90;99.90;;;;;;5047865;28;20124;-71
2022/05/19 06:48:11;;;;;;;22.85;18.85;;;20.80;99.90;;;;;;5046436;28;20120;-69
2022/05/19 06:50:38;;;;;;;20.67;18.13;;;20.80;99.90;;;;;;5044803;28;20044;-71
2022/05/19 06:53:04;;;;;;;21.13;18.17;;;20.70;99.90;;;;;;5023590;28;20037;-72
2022/05/19 06:55:34;;;;;;;20.02;17.48;;;20.50;99.90;;;;;;5045090;28;20149;-71
2022/05/19 06:58:00;;;;;;;22.88;18.33;;;20.40;99.90;;;;;;5031117;28;20044;-72
2022/05/19 07:00:28;;;;;;;19.58;17.42;;;20.20;99.90;;;;;;5046803;28;20063;-71
2022/05/19 07:02:56;;;;;;;23.50;19.13;;;20.00;99.90;;;;;;5049288;28;20123;-70
2022/05/19 07:05:25;;;;;;;23.15;18.73;;;20.00;99.90;;;;;;5031684;28;20048;-70
2022/05/19 07:07:50;;;;;;;20.80;17.08;;;19.80;99.90;;;;;;5048175;28;20033;-70
2022/05/19 07:10:19;;;;;;;22.10;18.65;;;19.70;99.90;;;;;;5044308;28;20025;-70
2022/05/19 07:12:45;;;;;;;19.40;17.02;;;19.60;99.90;;;;;;5032237;28;20124;-72
2022/05/19 07:15:12;;;;;;;16.55;14.63;;;19.60;99.90;;;;;;5016139;28;20140;-72
2022/05/19 07:17:39;;;;;;;16.63;14.15;;;19.50;99.90;;;;;;5048528;28;20051;-72
2022/05/19 07:22:50;;;;;;;16.90;15.07;;;19.10;99.90;;;;;;5048453;28;20048;-71
2022/05/19 07:25:16;;;;;;;17.38;15.45;;;19.10;99.90;;;;;;5048765;28;20116;-71
2022/05/19 07:27:42;;;;;;;18.00;16.05;;;19.20;99.90;;;;;;5045895;28;20127;-71
2022/05/19 07:30:09;;;;;;;18.58;16.30;;;19.40;99.90;;;;;;5042667;28;20049;-72
2022/05/19 07:32:36;;;;;;;21.70;17.40;;;19.20;99.90;;;;;;5029548;28;20051;-71
2022/05/19 07:35:03;;;;;;;19.73;17.73;;;19.40;99.90;;;;;;5044887;28;20064;-73
2022/05/19 07:37:28;;;;;;;24.40;19.00;;;19.30;99.90;;;;;;5046146;28;20037;-71
2022/05/19 07:39:54;;;;;;;20.98;18.80;;;19.40;99.90;;;;;;5029544;28;20390;-71
2022/05/19 07:42:21;;;;;;;23.58;19.50;;;19.20;99.90;;;;;;5012794;28;20040;-71
2022/05/19 07:44:46;;;;;;;21.98;18.85;;;19.30;99.90;;;;;;5029410;28;20125;-71
2022/05/19 07:47:14;;;;;;;21.67;19.38;;;19.30;99.90;;;;;;5030314;28;20120;-71
2022/05/19 07:49:40;;;;;;;26.65;21.30;;;19.20;99.90;;;;;;5015623;28;20041;-72
2022/05/19 07:52:07;;;;;;;23.63;19.95;;;19.10;99.90;;;;;;5040902;28;20085;-71
2022/05/19 07:54:33;;;;;;;24.52;20.70;;;19.10;99.90;;;;;;5052854;28;20114;-71
2022/05/19 07:56:59;;;;;;;26.33;19.98;;;19.00;99.90;;;;;;5051776;28;20412;-71
2022/05/19 07:59:26;;;;;;;27.17;20.58;;;19.20;99.90;;;;;;5016124;28;20037;-72
2022/05/19 08:01:55;;;;;;;21.02;17.95;;;19.20;99.90;;;;;;5070219;28;20053;-72
2022/05/19 08:04:22;;;;;;;16.25;14.35;;;19.40;99.90;;;;;;5052245;28;20239;-71
2022/05/19 08:06:48;;;;;;;17.30;12.57;;;19.20;99.90;;;;;;5050637;28;20040;-72
2022/05/19 08:11:59;;;;;;;15.68;11.45;;;19.00;99.90;;;;;;5050522;28;20055;-72
2022/05/19 08:17:10;;;;;;;16.30;11.32;;;18.80;99.90;;;;;;5050787;28;20060;-71
2022/05/19 08:19:39;;;;;;;14.82;11.35;;;18.80;99.90;;;;;;5051945;28;20103;-71
2022/05/19 08:22:08;;;;;;;12.30;9.50;;;18.80;99.90;;;;;;5050574;28;20044;-71
2022/05/19 08:24:35;;;;;;;14.80;8.82;;;18.90;99.90;;;;;;5031476;28;20045;-71
2022/05/19 08:27:00;;;;;;;11.38;8.40;;;19.00;99.90;;;;;;5043032;28;20455;-71
2022/05/19 08:29:27;;;;;;;12.77;7.28;;;19.00;99.90;;;;;;5051864;28;20045;-72
2022/05/19 08:31:53;;;;;;;9.10;5.93;;;19.20;99.90;;;;;;5050064;28;20072;-71
2022/05/19 08:34:19;;;;;;;9.95;5.88;;;19.30;99.90;;;;;;5050589;28;20436;-71
2022/05/19 08:36:46;;;;;;;10.02;7.22;;;19.30;99.90;;;;;;5044789;28;20041;-72
2022/05/19 08:39:13;;;;;;;9.70;7.25;;;19.20;99.90;;;;;;5031104;28;20056;-72
2022/05/19 08:42:01;;;;;;;10.15;6.82;;;19.10;99.90;;;;;;5031416;28;20049;-71
2022/05/19 08:44:32;;;;;;;10.80;6.88;;;19.20;99.90;;;;;;5029268;28;20040;-71
2022/05/19 08:47:00;;;;;;;10.52;7.05;;;19.20;99.90;;;;;;5033379;28;20044;-72
2022/05/19 08:49:47;;;;;;;9.63;6.78;;;19.20;99.90;;;;;;5034662;28;20051;-72
2022/05/19 08:52:22;;;;;;;8.90;6.47;;;19.30;99.90;;;;;;5050900;28;20048;-71
2022/05/19 08:54:50;;;;;;;10.45;6.45;;;19.30;99.90;;;;;;5049174;28;20424;-71
2022/05/19 08:57:23;;;;;;;8.82;6.00;;;19.50;99.90;;;;;;5050184;28;20072;-72
2022/05/19 09:00:04;;;;;;;9.68;6.78;;;19.40;99.90;;;;;;5048100;28;20031;-72
2022/05/19 09:03:01;;;;;;;9.02;5.97;;;19.60;99.90;;;;;;5034184;28;20045;-72
2022/05/19 09:05:55;;;;;;;7.75;6.35;;;19.70;99.90;;;;;;5045375;28;20040;-71
2022/05/19 09:08:48;;;;;;;8.13;6.53;;;19.90;99.90;;;;;;5048030;28;20048;-71
2022/05/19 09:11:45;;;;;;;10.20;6.63;;;20.20;99.90;;;;;;5050525;28;20123;-71
2022/05/19 09:14:27;;;;;;;9.82;7.05;;;20.20;99.90;;;;;;5030653;28;20043;-71
2022/05/19 09:16:58;;;;;;;8.98;7.00;;;20.20;99.90;;;;;;5028801;28;20369;-71
2022/05/19 09:19:38;;;;;;;10.43;7.82;;;20.40;99.90;;;;;;5041892;28;20036;-71
2022/05/19 09:22:05;;;;;;;9.90;7.55;;;20.70;99.90;;;;;;5050336;28;20124;-71
2022/05/19 09:24:31;;;;;;;9.93;7.47;;;21.00;99.90;;;;;;5014114;28;20037;-72
2022/05/19 09:26:59;;;;;;;9.35;6.47;;;21.10;99.90;;;;;;5030492;28;20508;-71
2022/05/19 09:29:56;;;;;;;8.27;7.18;;;21.40;99.90;;;;;;5049844;28;20112;-71
2022/05/19 09:32:34;;;;;;;7.20;6.50;;;21.20;99.90;;;;;;5044334;28;20060;-71
2022/05/19 09:35:07;;;;;;;8.43;6.57;;;21.10;99.90;;;;;;5014714;28;20045;-71
2022/05/19 09:37:42;;;;;;;11.45;7.03;;;21.60;99.90;;;;;;5016750;28;20127;-72
2022/05/19 09:40:27;;;;;;;10.10;7.40;;;21.90;99.90;;;;;;5044689;28;20047;-72
2022/05/19 09:42:53;;;;;;;9.02;7.97;;;21.20;99.90;;;;;;5040291;28;20094;-71
2022/05/19 09:45:27;;;;;;;10.25;7.47;;;21.80;99.90;;;;;;5047813;28;20044;-71
2022/05/19 09:47:57;;;;;;;;;;;22.10;99.90;;;;;;5043348;28;20186;-71
2022/05/19 09:50:26;;;;;;;8.90;7.88;;;22.20;99.90;;;;;;5049563;28;19927;-71
2022/05/19 09:53:03;;;;;;;11.30;8.73;;;22.20;99.90;;;;;;5043868;28;20049;-71
2022/05/19 09:55:29;;;;;;;10.02;9.02;;;22.30;99.90;;;;;;5033026;28;20084;-72
2022/05/19 09:57:58;;;;;;;10.43;8.77;;;22.70;99.90;;;;;;5032397;28;20080;-72
2022/05/19 10:00:26;;;;;;;7.40;6.53;;;22.70;99.90;;;;;;5047951;28;20045;-72
2022/05/19 10:02:58;;;;;;;8.90;8.00;;;22.60;99.90;;;;;;5048770;28;20084;-72
2022/05/19 10:05:31;;;;;;;8.35;7.45;;;22.50;99.90;;;;;;5016758;28;20507;-72
2022/05/19 10:08:05;;;;;;;10.35;7.78;;;22.60;99.90;;;;;;5015349;28;20040;-71
2022/05/19 10:10:33;;;;;;;8.75;7.85;;;22.60;99.90;;;;;;5046343;28;20040;-70
2022/05/19 10:13:17;;;;;;;10.05;8.45;;;22.50;99.90;;;;;;5030537;28;20056;-71
2022/05/19 10:16:15;;;;;;;8.93;7.38;;;22.70;99.90;;;;;;5012934;28;20045;-71
2022/05/19 10:19:20;;;;;;;9.40;7.97;;;22.40;99.90;;;;;;5004820;28;20049;-72
2022/05/19 10:22:15;;;;;;;9.38;7.13;;;22.80;99.90;;;;;;4998220;28;20739;-70
2022/05/19 10:25:00;;;;;;;9.73;7.47;;;23.20;99.90;;;;;;5019830;28;20044;-72
2022/05/19 10:33:54;;;;;;;7.13;5.90;;;23.60;99.90;;;;;;5046936;28;20366;-72
2022/05/19 10:36:26;;;;;;;7.20;6.50;;;23.90;99.90;;;;;;5049275;28;20485;-72
2022/05/19 10:38:57;;;;;;;8.60;7.63;;;24.20;99.90;;;;;;5043933;28;20041;-70
2022/05/19 10:41:44;;;;;;;6.93;6.22;;;24.00;99.90;;;;;;5044168;28;20033;-71
2022/05/19 10:44:21;;;;;;;7.88;7.00;;;24.30;99.90;;;;;;5030447;28;20039;-71
2022/05/19 10:47:16;;;;;;;9.00;6.40;;;24.40;99.90;;;;;;5031667;28;20855;-72
2022/05/19 10:50:20;;;;;;;9.20;7.55;;;24.20;99.90;;;;;;5043590;28;20057;-72
2022/05/19 10:53:01;;;;;;;8.40;7.57;;;24.10;99.90;;;;;;5027751;28;20052;-71
2022/05/19 10:55:51;;;;;;;9.13;7.68;;;23.60;99.90;;;;;;5049112;28;20088;-72
2022/05/19 10:58:35;;;;;;;8.93;5.57;;;23.60;99.90;;;;;;5045613;28;20496;-72
2022/05/19 11:01:30;;;;;;;5.15;4.65;;;23.60;99.90;;;;;;5022976;28;20055;-71
2022/05/19 11:04:14;;;;;;;5.95;4.50;;;23.90;99.90;;;;;;5032835;28;20037;-71
2022/05/19 11:06:52;;;;;;;4.70;4.30;;;23.40;99.90;;;;;;5033302;28;20131;-71
2022/05/19 11:09:48;;;;;;;5.50;4.78;;;23.60;99.90;;;;;;5046996;28;20084;-72
2022/05/19 11:12:42;;;;;;;5.65;4.15;;;23.50;99.90;;;;;;5046261;28;20120;-71
2022/05/19 11:15:30;;;;;;;4.97;4.05;;;23.40;99.90;;;;;;5029349;28;20363;-71
2022/05/19 11:18:20;;;;;;;5.28;4.20;;;23.40;99.90;;;;;;5018914;28;20154;-71
2022/05/19 11:21:03;;;;;;;7.32;6.55;;;23.70;99.90;;;;;;5040334;28;20397;-72
2022/05/19 11:23:43;;;;;;;8.40;6.85;;;23.90;99.90;;;;;;5035386;28;20738;-71
2022/05/19 11:26:24;;;;;;;5.95;5.05;;;24.10;99.90;;;;;;5036386;28;20098;-71
2022/05/19 11:29:05;;;;;;;9.23;6.90;;;24.10;99.90;;;;;;5053155;28;20045;-71
2022/05/19 11:31:35;;;;;;;9.07;7.38;;;24.00;99.90;;;;;;5048879;28;20051;-71
2022/05/19 11:34:23;;;;;;;8.73;7.53;;;23.70;99.90;;;;;;5053014;28;20047;-70
2022/05/19 11:37:05;;;;;;;7.35;6.40;;;23.90;99.90;;;;;;5051546;28;20698;-71
2022/05/19 11:39:44;;;;;;;6.35;5.38;;;24.00;99.90;;;;;;5051575;28;20051;-70
2022/05/19 11:42:50;;;;;;;5.90;5.30;;;23.80;99.90;;;;;;5051805;28;20044;-70
2022/05/19 11:45:34;;;;;;;7.50;6.60;;;24.10;99.90;;;;;;5015790;28;20358;-72
2022/05/19 11:56:40;;;;;;;9.07;8.15;;;24.20;99.90;;;;;;5052688;28;20132;-72
2022/05/19 11:59:10;;;;;;;11.88;9.95;;;24.50;99.90;;;;;;5050095;28;20123;-71
2022/05/19 12:01:43;;;;;;;13.82;12.32;;;24.40;99.90;;;;;;5051049;28;20484;-71
2022/05/19 12:04:15;;;;;;;11.48;10.27;;;24.40;99.90;;;;;;5051890;28;20045;-72
2022/05/19 12:06:53;;;;;;;13.40;11.90;;;24.30;99.90;;;;;;5051669;28;20147;-72
2022/05/19 12:09:29;;;;;;;13.68;11.48;;;24.40;99.90;;;;;;5050110;28;20473;-72
2022/05/19 12:12:03;;;;;;;13.00;10.48;;;24.30;99.90;;;;;;5032463;28;20045;-72
2022/05/19 12:14:46;;;;;;;11.88;10.75;;;24.40;99.90;;;;;;5032170;28;20076;-72
2022/05/19 12:17:28;;;;;;;11.90;10.40;;;24.30;99.90;;;;;;5034442;28;20079;-72
2022/05/19 12:19:58;;;;;;;13.15;11.85;;;24.50;99.90;;;;;;5051777;28;20060;-72
2022/05/19 12:22:26;;;;;;;11.43;9.57;;;24.30;99.90;;;;;;5049755;28;20033;-72
2022/05/19 12:25:14;;;;;;;11.98;10.80;;;24.30;99.90;;;;;;5017557;28;20128;-71
2022/05/19 12:27:55;;;;;;;10.35;9.35;;;24.10;99.90;;;;;;5031342;28;20496;-71
2022/05/19 12:33:36;;;;;;;12.63;11.43;;;24.10;99.90;;;;;;5051173;28;20044;-72
2022/05/19 12:36:16;;;;;;;12.05;10.48;;;24.10;99.90;;;;;;5050365;28;20497;-74
2022/05/19 12:38:45;;;;;;;10.55;9.52;;;24.10;99.90;;;;;;5046610;28;20037;-72
2022/05/19 12:41:22;;;;;;;10.85;9.43;;;24.10;99.90;;;;;;5051002;28;20045;-74
2022/05/19 12:43:49;;;;;;;10.98;9.88;;;24.20;99.90;;;;;;5033349;28;20071;-72
2022/05/19 12:46:33;;;;;;;11.93;9.18;;;24.10;99.90;;;;;;5034221;28;20041;-71
2022/05/19 12:49:19;;;;;;;9.30;8.35;;;24.10;99.90;;;;;;5047293;28;20037;-71
2022/05/19 12:51:56;;;;;;;10.63;9.52;;;23.90;99.90;;;;;;5050421;28;20052;-72
2022/05/19 12:54:25;;;;;;;12.02;10.32;;;23.80;99.90;;;;;;5049762;28;20051;-72
2022/05/19 12:57:11;;;;;;;9.82;8.93;;;23.80;99.90;;;;;;5051647;28;20405;-72
2022/05/19 13:00:01;;;;;;;9.65;8.65;;;23.70;99.90;;;;;;5045990;28;20037;-72
2022/05/19 13:02:35;;;;;;;11.10;8.23;;;23.70;99.90;;;;;;5032499;28;20513;-72
2022/05/19 13:05:16;;;;;;;10.82;8.40;;;23.60;99.90;;;;;;5047081;28;20036;-72
2022/05/19 13:07:50;;;;;;;8.50;7.70;;;23.60;99.90;;;;;;5050157;28;20520;-72
2022/05/19 13:10:21;;;;;;;8.65;7.78;;;23.50;99.90;;;;;;5048327;28;20045;-72
2022/05/19 13:12:48;;;;;;;15.48;8.38;;;23.40;99.90;;;;;;5051060;28;20044;-71
2022/05/19 13:15:23;;;;;;;11.00;7.60;;;23.10;99.90;;;;;;5050015;28;20458;-71
2022/05/19 13:17:51;;;;;;;7.55;6.72;;;22.30;99.90;;;;;;5050145;28;20079;-72
2022/05/19 13:20:43;;;;;;;7.25;5.38;;;21.40;99.90;;;;;;5047483;28;20036;-71
2022/05/19 13:23:23;;;;;;;6.30;4.25;;;20.90;99.90;;;;;;5048332;28;20086;-71